createdAt,value
2023-03-26T00:02:29.724Z,2.08
2023-03-26T00:05:02.733Z,2.13
2023-03-26T00:07:35.376Z,2.33
2023-03-26T00:10:08.453Z,2.63
2023-03-26T00:12:41.276Z,3.33
2023-03-26T00:15:13.774Z,2.15
2023-03-26T00:17:46.738Z,2.72
2023-03-26T00:20:19.408Z,2.72
2023-03-26T00:22:55.263Z,1.90
2023-03-26T00:25:27.989Z,2.22
2023-03-26T00:28:00.999Z,2.50
2023-03-26T00:30:35.722Z,2.50
2023-03-26T00:33:08.421Z,2.70
2023-03-26T00:35:43.221Z,2.05
2023-03-26T00:38:17.627Z,2.33
2023-03-26T00:40:54.695Z,3.00
2023-03-26T00:43:32.772Z,2.10
2023-03-26T00:46:06.359Z,3.38
2023-03-26T00:51:17.266Z,2.33
2023-03-26T00:53:51.202Z,2.25
2023-03-26T00:56:24.657Z,2.47
2023-03-26T00:58:57.770Z,2.20
2023-03-26T01:01:31.457Z,2.13
2023-03-26T01:04:31.505Z,3.13
2023-03-26T01:07:11.782Z,1.85
2023-03-26T01:09:50.345Z,1.88
2023-03-26T01:12:31.850Z,3.35
2023-03-26T01:15:05.520Z,2.15
2023-03-26T01:17:38.504Z,2.67
2023-03-26T01:20:26.670Z,2.80
2023-03-26T01:23:06.321Z,2.53
2023-03-26T01:25:48.250Z,1.92
2023-03-26T01:28:22.870Z,2.30
2023-03-26T01:31:41.547Z,2.45
2023-03-26T01:35:14.971Z,2.67
2023-03-26T01:38:22.838Z,2.97
2023-03-26T01:41:14.213Z,2.50
2023-03-26T01:44:18.554Z,1.80
2023-03-26T01:46:52.373Z,2.05
2023-03-26T01:49:28.568Z,2.25
2023-03-26T01:52:01.408Z,3.03
2023-03-26T01:54:34.203Z,1.85
2023-03-26T01:57:20.357Z,2.08
2023-03-26T02:00:26.016Z,2.33
2023-03-26T02:03:09.952Z,1.70
2023-03-26T02:05:54.522Z,2.22
2023-03-26T02:08:35.873Z,2.78
2023-03-26T02:11:16.471Z,2.00
2023-03-26T02:13:51.313Z,1.85
2023-03-26T02:16:24.001Z,2.65
2023-03-26T02:18:59.275Z,2.30
2023-03-26T02:21:33.896Z,1.85
2023-03-26T02:24:07.015Z,1.70
2023-03-26T02:26:39.852Z,1.80
2023-03-26T02:29:14.496Z,1.95
2023-03-26T02:31:51.078Z,1.80
2023-03-26T02:34:23.643Z,1.95
2023-03-26T02:36:57.210Z,2.25
2023-03-26T02:39:29.836Z,1.52
2023-03-26T02:42:02.469Z,1.65
2023-03-26T02:44:35.054Z,2.10
2023-03-26T02:47:07.810Z,1.45
2023-03-26T02:49:40.355Z,1.92
2023-03-26T02:52:12.951Z,1.90
2023-03-26T02:54:45.700Z,3.05
2023-03-26T02:57:18.229Z,2.08
2023-03-26T02:59:52.811Z,2.28
2023-03-26T03:02:25.669Z,1.92
2023-03-26T03:05:01.517Z,1.80
2023-03-26T03:07:37.937Z,2.33
2023-03-26T03:10:10.897Z,1.58
2023-03-26T03:12:43.546Z,2.83
2023-03-26T03:15:16.148Z,1.77
2023-03-26T03:17:48.633Z,1.92
2023-03-26T03:20:21.998Z,2.03
2023-03-26T03:22:54.539Z,2.10
2023-03-26T03:25:27.118Z,2.10
2023-03-26T03:27:59.686Z,2.40
2023-03-26T03:30:32.256Z,1.52
2023-03-26T03:33:08.077Z,1.70
2023-03-26T03:35:41.745Z,2.10
2023-03-26T03:38:14.517Z,1.98
2023-03-26T03:40:47.088Z,2.28
2023-03-26T03:43:19.685Z,1.75
2023-03-26T03:45:52.264Z,1.80
2023-03-26T03:48:24.896Z,1.15
2023-03-26T03:50:57.541Z,2.13
2023-03-26T03:53:30.386Z,1.55
2023-03-26T03:56:03.059Z,1.40
2023-03-26T03:58:36.236Z,2.13
2023-03-26T04:01:08.766Z,1.42
2023-03-26T04:03:41.428Z,1.60
2023-03-26T04:06:14.350Z,1.60
2023-03-26T04:08:47.005Z,1.73
2023-03-26T04:11:19.529Z,1.05
2023-03-26T04:13:52.137Z,1.58
2023-03-26T04:16:24.814Z,1.17
2023-03-26T04:18:58.273Z,1.60
2023-03-26T04:21:30.962Z,1.25
2023-03-26T04:24:05.503Z,1.40
2023-03-26T04:26:38.193Z,0.95
2023-03-26T04:29:17.147Z,1.13
2023-03-26T04:31:58.549Z,1.60
2023-03-26T04:34:32.571Z,1.60
2023-03-26T04:37:05.763Z,1.40
2023-03-26T04:39:39.000Z,1.10
2023-03-26T04:42:11.575Z,1.42
2023-03-26T04:44:44.154Z,1.27
2023-03-26T04:47:18.794Z,1.40
2023-03-26T04:49:51.340Z,1.17
2023-03-26T04:52:24.129Z,1.33
2023-03-26T04:54:57.536Z,1.55
2023-03-26T04:57:40.014Z,1.25
2023-03-26T05:00:16.388Z,1.63
2023-03-26T05:02:54.204Z,1.55
2023-03-26T05:05:28.788Z,1.13
2023-03-26T05:08:01.589Z,1.17
2023-03-26T05:10:34.306Z,1.52
2023-03-26T05:13:06.908Z,1.35
2023-03-26T05:15:39.513Z,1.40
2023-03-26T05:18:12.386Z,1.30
2023-03-26T05:20:46.366Z,1.55
2023-03-26T05:23:19.121Z,1.75
2023-03-26T05:25:51.960Z,1.70
2023-03-26T05:28:26.616Z,2.03
2023-03-26T05:30:59.122Z,2.03
2023-03-26T05:33:31.686Z,2.45
2023-03-26T05:36:15.289Z,3.22
2023-03-26T05:38:49.459Z,2.72
2023-03-26T05:41:22.211Z,2.28
2023-03-26T05:43:54.886Z,1.70
2023-03-26T05:46:27.787Z,1.60
2023-03-26T05:49:00.827Z,1.90
2023-03-26T05:51:33.396Z,0.98
2023-03-26T05:54:05.911Z,1.40
2023-03-26T05:56:38.500Z,1.70
2023-03-26T05:59:11.155Z,1.90
2023-03-26T06:01:44.858Z,1.48
2023-03-26T06:04:18.592Z,2.10
2023-03-26T06:06:52.671Z,1.67
2023-03-26T06:09:25.378Z,2.10
2023-03-26T06:11:57.872Z,1.42
2023-03-26T06:14:30.672Z,2.03
2023-03-26T06:17:04.085Z,1.45
2023-03-26T06:19:37.097Z,1.30
2023-03-26T06:22:09.755Z,2.50
2023-03-26T06:24:42.311Z,1.88
2023-03-26T06:27:14.925Z,2.03
2023-03-26T06:29:48.021Z,1.20
2023-03-26T06:32:20.814Z,1.38
2023-03-26T06:34:53.389Z,1.50
2023-03-26T06:37:25.932Z,2.05
2023-03-26T06:39:58.651Z,1.50
2023-03-26T06:43:07.183Z,1.73
2023-03-26T06:45:23.819Z,1.40
2023-03-26T06:47:56.379Z,1.90
2023-03-26T06:50:29.253Z,1.80
2023-03-26T06:53:01.941Z,1.30
2023-03-26T06:55:34.531Z,1.63
2023-03-26T06:58:07.056Z,1.98
2023-03-26T07:00:42.234Z,2.15
2023-03-26T07:03:17.116Z,1.85
2023-03-26T07:05:49.885Z,1.88
2023-03-26T07:08:25.109Z,1.73
2023-03-26T07:10:58.859Z,1.65
2023-03-26T07:13:31.423Z,1.85
2023-03-26T07:16:04.460Z,1.60
2023-03-26T07:18:37.046Z,1.30
2023-03-26T07:21:10.566Z,1.55
2023-03-26T07:23:43.515Z,1.88
2023-03-26T07:26:55.313Z,1.73
2023-03-26T07:30:11.948Z,1.17
2023-03-26T07:33:01.608Z,1.98
2023-03-26T07:36:08.016Z,1.58
2023-03-26T07:39:14.266Z,1.40
2023-03-26T07:42:08.879Z,2.60
2023-03-26T07:44:59.860Z,1.58
2023-03-26T07:47:34.842Z,2.08
2023-03-26T07:50:15.668Z,1.75
2023-03-26T07:52:50.228Z,2.00
2023-03-26T07:55:23.118Z,1.50
2023-03-26T07:58:17.558Z,1.90
2023-03-26T08:01:15.452Z,1.33
2023-03-26T08:04:35.927Z,1.80
2023-03-26T08:07:32.660Z,1.50
2023-03-26T08:10:22.442Z,1.58
2023-03-26T08:13:13.340Z,1.70
2023-03-26T08:15:57.751Z,1.60
2023-03-26T08:18:38.780Z,1.33
2023-03-26T08:21:31.602Z,2.20
2023-03-26T08:24:43.573Z,2.22
2023-03-26T08:27:41.677Z,1.92
2023-03-26T08:30:20.950Z,1.80
2023-03-26T08:33:00.727Z,2.13
2023-03-26T08:35:35.196Z,1.30
2023-03-26T08:38:10.694Z,1.83
2023-03-26T08:41:05.651Z,1.48
2023-03-26T08:43:56.513Z,1.33
2023-03-26T08:46:48.874Z,1.70
2023-03-26T08:49:49.815Z,1.50
2023-03-26T08:52:59.297Z,2.10
2023-03-26T08:55:49.404Z,1.52
2023-03-26T08:58:37.079Z,1.67
2023-03-26T09:02:05.588Z,1.65
2023-03-26T09:04:59.655Z,1.42
2023-03-26T09:07:59.381Z,1.27
2023-03-26T09:10:52.300Z,1.77
2023-03-26T09:13:49.393Z,2.20
2023-03-26T09:16:51.007Z,2.28
2023-03-26T09:20:13.793Z,1.88
2023-03-26T09:23:04.613Z,2.38
2023-03-26T09:26:17.275Z,2.15
2023-03-26T09:29:32.367Z,1.90
2023-03-26T09:32:30.874Z,1.60
2023-03-26T09:35:41.281Z,2.53
2023-03-26T09:38:43.602Z,0.95
2023-03-26T09:41:22.566Z,1.75
2023-03-26T09:44:19.688Z,1.10
2023-03-26T09:47:01.279Z,1.23
2023-03-26T09:50:21.528Z,1.05
2023-03-26T09:53:43.578Z,1.23
2023-03-26T09:57:03.190Z,1.30
2023-03-26T09:59:46.976Z,1.50
2023-03-26T10:02:46.429Z,0.82
2023-03-26T10:06:02.549Z,1.38
2023-03-26T10:09:20.805Z,1.02
2023-03-26T10:12:17.736Z,0.60
2023-03-26T10:15:02.737Z,0.70
2023-03-26T10:17:55.654Z,1.00
2023-03-26T10:20:58.968Z,0.73
2023-03-26T10:23:45.131Z,0.98
2023-03-26T10:26:36.672Z,0.70
2023-03-26T10:29:47.980Z,1.50
2023-03-26T10:33:00.189Z,0.90
2023-03-26T10:36:22.943Z,0.60
2023-03-26T10:39:38.726Z,0.50
2023-03-26T10:42:47.922Z,0.60
2023-03-26T10:45:54.308Z,0.50
2023-03-26T10:49:03.574Z,0.80
2023-03-26T10:51:58.545Z,0.30
2023-03-26T10:54:56.808Z,1.42
2023-03-26T10:57:41.222Z,0.45
2023-03-26T11:00:25.611Z,0.45
2023-03-26T11:03:28.769Z,0.60
2023-03-26T11:06:35.424Z,0.35
2023-03-26T11:09:13.836Z,0.40
2023-03-26T11:12:26.759Z,0.45
2023-03-26T11:15:00.926Z,0.50
2023-03-26T11:17:52.079Z,0.60
2023-03-26T11:20:46.444Z,0.50
2023-03-26T11:24:04.666Z,0.40
2023-03-26T11:26:55.584Z,0.40
2023-03-26T11:32:27.526Z,0.32
2023-03-26T11:34:36.778Z,0.50
2023-03-26T11:35:04.243Z,0.50
2023-03-26T11:37:46.450Z,0.57
2023-03-26T11:40:33.173Z,0.50
2023-03-26T11:43:21.763Z,0.70
2023-03-26T11:45:54.827Z,0.40
2023-03-26T11:48:41.894Z,0.57
2023-03-26T11:51:29.354Z,0.50
2023-03-26T11:54:04.063Z,0.98
2023-03-26T11:57:16.794Z,0.60
2023-03-26T11:59:59.929Z,0.70
2023-03-26T12:02:40.828Z,0.88
2023-03-26T12:05:20.635Z,0.50
2023-03-26T12:08:04.188Z,0.40
2023-03-26T12:10:42.901Z,0.60
2023-03-26T12:13:39.285Z,0.80
2023-03-26T12:16:19.581Z,1.30
2023-03-26T12:19:22.238Z,0.93
2023-03-26T12:21:55.198Z,1.10
2023-03-26T12:24:36.080Z,1.00
2023-03-26T12:27:20.635Z,1.15
2023-03-26T12:30:10.562Z,1.27
2023-03-26T12:32:46.776Z,1.02
2023-03-26T12:35:30.155Z,1.20
2023-03-26T12:38:34.609Z,1.08
2023-03-26T12:43:51.428Z,1.10
2023-03-26T12:44:56.464Z,1.60
2023-03-26T12:47:55.364Z,1.20
2023-03-26T12:50:46.132Z,1.65
2023-03-26T12:54:17.437Z,1.25
2023-03-26T12:57:20.901Z,1.35
2023-03-26T13:00:29.316Z,1.23
2023-03-26T13:03:23.991Z,1.38
2023-03-26T13:06:23.931Z,1.30
2023-03-26T13:09:50.427Z,1.00
2023-03-26T13:12:43.874Z,1.25
2023-03-26T13:15:38.828Z,1.08
2023-03-26T13:18:23.802Z,1.00
2023-03-26T13:21:46.004Z,0.95
2023-03-26T13:25:04.068Z,1.00
2023-03-26T13:27:51.475Z,3.90
2023-03-26T13:30:55.024Z,1.17
2023-03-26T13:33:52.651Z,1.40
2023-03-26T13:36:51.030Z,2.00
2023-03-26T13:40:01.304Z,2.10
2023-03-26T13:42:48.243Z,1.50
2023-03-26T13:46:17.036Z,1.60
2023-03-26T13:49:02.152Z,1.70
2023-03-26T13:51:58.925Z,1.02
2023-03-26T13:54:38.613Z,0.70
2023-03-26T13:57:20.303Z,1.00
2023-03-26T14:00:16.384Z,1.20
2023-03-26T14:03:29.101Z,1.45
2023-03-26T14:06:12.814Z,1.65
2023-03-26T14:09:04.734Z,1.48
2023-03-26T14:12:21.798Z,1.88
2023-03-26T14:15:04.674Z,1.70
2023-03-26T14:18:20.513Z,2.10
2023-03-26T14:21:49.576Z,1.85
2023-03-26T14:24:48.966Z,2.28
2023-03-26T14:27:44.388Z,2.75
2023-03-26T14:31:04.193Z,2.92
2023-03-26T14:33:48.570Z,3.00
2023-03-26T14:36:51.139Z,3.33
2023-03-26T14:39:43.244Z,2.63
2023-03-26T14:42:36.344Z,2.55
2023-03-26T14:45:49.006Z,2.90
2023-03-26T14:48:50.658Z,3.03
2023-03-26T14:52:03.998Z,2.35
2023-03-26T14:54:55.000Z,2.15
2023-03-26T14:57:45.716Z,1.83
2023-03-26T15:01:04.049Z,1.98
2023-03-26T15:04:19.523Z,1.92
2023-03-26T15:10:06.001Z,1.65
2023-03-26T15:16:20.227Z,1.88
2023-03-26T15:19:45.518Z,1.60
2023-03-26T15:22:27.270Z,1.75
2023-03-26T15:25:11.461Z,1.83
2023-03-26T15:29:01.058Z,1.65
2023-03-26T15:32:25.930Z,1.55
2023-03-26T15:35:20.720Z,2.30
2023-03-26T15:38:43.172Z,2.05
2023-03-26T15:41:53.603Z,2.00
2023-03-26T15:44:50.929Z,1.80
2023-03-26T15:48:10.957Z,2.13
2023-03-26T15:51:17.937Z,1.80
2023-03-26T15:54:05.879Z,2.67
2023-03-26T15:57:12.046Z,2.28
2023-03-26T16:00:22.686Z,1.98
2023-03-26T16:03:15.843Z,2.35
2023-03-26T16:06:27.932Z,1.77
2023-03-26T16:09:32.489Z,2.70
2023-03-26T16:12:17.193Z,2.80
2023-03-26T16:15:23.838Z,3.33
2023-03-26T16:18:12.263Z,1.88
2023-03-26T16:21:30.871Z,1.75
2023-03-26T16:24:11.014Z,2.08
2023-03-26T16:26:43.477Z,1.60
2023-03-26T16:29:28.589Z,1.38
2023-03-26T16:32:11.044Z,1.67
2023-03-26T16:35:24.680Z,1.17
2023-03-26T16:38:18.411Z,1.25
2023-03-26T16:41:00.278Z,2.75
2023-03-26T16:43:46.740Z,1.00
2023-03-26T16:46:31.264Z,1.98
2023-03-26T16:49:41.597Z,1.50
2023-03-26T16:52:43.054Z,1.27
2023-03-26T16:55:37.720Z,1.30
2023-03-26T16:58:49.241Z,2.17
2023-03-26T17:01:41.405Z,1.60
2023-03-26T17:04:24.806Z,1.48
2023-03-26T17:07:15.475Z,1.50
2023-03-26T17:10:19.131Z,1.10
2023-03-26T17:13:16.643Z,1.85
2023-03-26T17:16:16.114Z,1.40
2023-03-26T17:19:09.106Z,1.33
2023-03-26T17:22:37.346Z,1.58
2023-03-26T17:25:25.026Z,2.00
2023-03-26T17:28:20.938Z,1.33
2023-03-26T17:31:23.619Z,1.42
2023-03-26T17:34:38.874Z,1.27
2023-03-26T17:37:43.388Z,1.40
2023-03-26T17:40:58.707Z,1.52
2023-03-26T17:43:47.928Z,1.15
2023-03-26T17:46:48.363Z,1.48
2023-03-26T17:49:31.978Z,1.10
2023-03-26T17:52:25.258Z,2.20
2023-03-26T17:55:00.160Z,1.45
2023-03-26T17:57:43.372Z,1.20
2023-03-26T18:00:45.201Z,1.38
2023-03-26T18:03:30.850Z,1.25
2023-03-26T18:06:14.142Z,1.13
2023-03-26T18:09:05.662Z,1.02
2023-03-26T18:12:15.712Z,1.25
2023-03-26T18:15:09.210Z,1.58
2023-03-26T18:17:46.284Z,1.35
2023-03-26T18:20:29.130Z,1.05
2023-03-26T18:23:12.423Z,1.38
2023-03-26T18:25:56.458Z,1.55
2023-03-26T18:28:37.042Z,1.33
2023-03-26T18:31:24.077Z,1.20
2023-03-26T18:34:06.655Z,1.73
2023-03-26T18:36:45.395Z,1.83
2023-03-26T18:39:18.884Z,1.73
2023-03-26T18:41:51.506Z,1.08
2023-03-26T18:44:24.162Z,0.82
2023-03-26T18:46:57.514Z,0.88
2023-03-26T18:49:30.212Z,1.08
2023-03-26T18:52:03.522Z,1.50
2023-03-26T18:54:36.416Z,1.40
2023-03-26T18:57:15.881Z,0.88
2023-03-26T18:59:52.398Z,0.77
2023-03-26T19:02:26.156Z,1.67
2023-03-26T19:05:05.249Z,0.73
2023-03-26T19:07:39.071Z,1.15
2023-03-26T19:10:21.311Z,0.88
2023-03-26T19:13:01.497Z,0.93
2023-03-26T19:15:36.014Z,0.65
2023-03-26T19:18:14.487Z,0.95
2023-03-26T19:21:01.514Z,1.10
2023-03-26T19:23:41.701Z,1.10
2023-03-26T19:26:19.592Z,0.93
2023-03-26T19:28:56.106Z,1.73
2023-03-26T19:31:38.794Z,1.30
2023-03-26T19:36:58.162Z,0.52
2023-03-26T19:39:44.723Z,1.30
2023-03-26T19:42:43.131Z,1.10
2023-03-26T19:45:21.817Z,1.55
2023-03-26T19:48:04.032Z,1.30
2023-03-26T19:51:01.375Z,1.02
2023-03-26T19:53:37.228Z,0.75
2023-03-26T19:56:18.307Z,1.25
2023-03-26T19:58:51.306Z,1.20
2023-03-26T20:01:28.602Z,1.55
2023-03-26T20:04:06.140Z,1.90
2023-03-26T20:06:43.728Z,1.40
2023-03-26T20:09:16.861Z,0.95
2023-03-26T20:11:52.443Z,1.00
2023-03-26T20:14:26.579Z,0.90
2023-03-26T20:16:59.571Z,0.90
2023-03-26T20:19:32.272Z,0.75
2023-03-26T20:22:07.999Z,1.15
2023-03-26T20:24:41.396Z,1.30
2023-03-26T20:27:14.832Z,0.70
2023-03-26T20:29:47.630Z,0.77
2023-03-26T20:32:27.727Z,1.15
2023-03-26T20:35:02.173Z,0.80
2023-03-26T20:37:34.955Z,0.73
2023-03-26T20:40:08.684Z,0.73
2023-03-26T20:42:44.517Z,1.13
2023-03-26T20:45:21.274Z,0.75
2023-03-26T20:47:54.177Z,0.52
2023-03-26T20:50:26.797Z,1.17
2023-03-26T20:53:00.295Z,1.10
2023-03-26T20:55:32.864Z,0.70
2023-03-26T20:58:05.448Z,0.85
2023-03-26T21:00:38.001Z,0.90
2023-03-26T21:03:14.789Z,0.90
2023-03-26T21:05:48.925Z,1.27
2023-03-26T21:08:23.757Z,0.55
2023-03-26T21:11:01.947Z,1.17
2023-03-26T21:13:50.023Z,1.05
2023-03-26T21:16:23.247Z,0.80
2023-03-26T21:18:57.708Z,0.65
2023-03-26T21:22:30.136Z,0.98
2023-03-26T21:25:19.678Z,1.05
2023-03-26T21:28:06.132Z,0.73
2023-03-26T21:30:39.912Z,0.95
2023-03-26T21:33:13.752Z,1.13
2023-03-26T21:35:52.889Z,1.33
2023-03-26T21:38:26.591Z,0.95
2023-03-26T21:41:01.467Z,0.93
2023-03-26T21:43:34.176Z,1.15
2023-03-26T21:46:07.403Z,1.05
2023-03-26T21:48:43.772Z,0.73
2023-03-26T21:51:18.907Z,1.02
2023-03-26T21:53:51.913Z,0.63
2023-03-26T21:56:52.874Z,1.13
2023-03-26T21:59:51.677Z,1.05
2023-03-26T22:02:58.308Z,0.80
2023-03-26T22:06:15.321Z,0.68
2023-03-26T22:08:48.150Z,1.00
2023-03-26T22:11:20.680Z,1.48
2023-03-26T22:13:53.344Z,0.90
2023-03-26T22:16:26.084Z,1.73
2023-03-26T22:18:58.644Z,1.17
2023-03-26T22:21:31.154Z,1.15
2023-03-26T22:24:04.656Z,0.75
2023-03-26T22:26:37.676Z,1.33
2023-03-26T22:29:10.377Z,1.02
2023-03-26T22:31:43.085Z,1.23
2023-03-26T22:34:15.737Z,0.68
2023-03-26T22:36:48.399Z,0.65
2023-03-26T22:39:21.487Z,1.05
2023-03-26T22:41:54.375Z,0.65
2023-03-26T22:44:27.015Z,1.00
2023-03-26T22:46:59.459Z,0.88
2023-03-26T22:49:33.114Z,1.27
2023-03-26T22:52:09.636Z,0.77
2023-03-26T22:54:42.241Z,0.98
2023-03-26T22:57:15.853Z,0.70
2023-03-26T22:59:48.563Z,0.93
2023-03-26T23:02:21.429Z,1.00
2023-03-26T23:04:53.988Z,0.77
2023-03-26T23:07:26.752Z,1.15
2023-03-26T23:09:59.398Z,1.20
2023-03-26T23:12:32.115Z,0.85
2023-03-26T23:15:06.137Z,1.17
2023-03-26T23:17:38.823Z,0.63
2023-03-26T23:20:14.593Z,0.38
2023-03-26T23:22:48.073Z,0.95
2023-03-26T23:25:20.686Z,0.52
2023-03-26T23:27:53.745Z,0.68
2023-03-26T23:30:26.374Z,1.02
2023-03-26T23:32:58.991Z,0.93
2023-03-26T23:35:31.580Z,0.73
2023-03-26T23:38:04.185Z,1.02
2023-03-26T23:40:36.678Z,0.82
2023-03-26T23:43:09.355Z,1.50
2023-03-26T23:45:45.246Z,1.60
2023-03-26T23:48:22.618Z,0.70
2023-03-26T23:51:04.411Z,0.70
2023-03-26T23:53:37.325Z,1.17
2023-03-26T23:56:13.317Z,1.05
2023-03-26T23:58:45.900Z,0.70
